Time;durP1;ratioP1;P1;durP2;ratioP2;P2;SDS_P1;SDS_P2;PMS_P1;PMS_P2;Temp;Humidity;BMP_temperature;BMP_pressure;BME280_temperature;BME280_humidity;BME280_pressure;Samples;Min_cycle;Max_cycle;Signal;HPM_P1;HPM_P2
2022/11/18 00:01:36;;;;;;;7.87;7.07;;;8.50;83.00;;;10.98;60.59;99892.16;5095833;28;20216;-53
2022/11/18 00:04:03;;;;;;;7.23;6.50;;;8.40;82.80;;;10.99;60.86;99896.41;5092447;28;20194;-55
2022/11/18 00:06:30;;;;;;;8.30;7.43;;;8.40;82.90;;;10.99;60.64;99896.41;5075982;28;20193;-54
2022/11/18 00:08:59;;;;;;;7.40;6.70;;;8.40;83.80;;;11.02;60.65;99896.03;5075518;28;20673;-54
2022/11/18 00:14:17;;;;;;;8.17;7.07;;;8.40;83.20;;;10.99;61.26;99891.13;5076924;28;20188;-54
2022/11/18 00:16:45;;;;;;;8.87;6.97;;;8.40;83.30;;;10.93;60.94;99897.22;5095145;28;20230;-54
2022/11/18 00:19:13;;;;;;;8.33;6.40;;;8.40;83.20;;;10.91;61.04;99900.03;5089321;28;20574;-53
2022/11/18 00:21:41;;;;;;;7.57;6.70;;;8.40;83.10;;;10.91;61.32;99899.22;5075413;28;20213;-56
2022/11/18 00:24:08;;;;;;;7.93;7.13;;;8.40;83.30;;;10.84;61.59;99900.00;5075393;28;20266;-53
2022/11/18 00:26:36;;;;;;;7.20;6.50;;;8.40;83.10;;;10.86;61.11;99900.63;5055193;28;20665;-57
2022/11/18 00:29:03;;;;;;;8.13;6.97;;;8.40;83.30;;;10.88;61.81;99908.34;5055072;28;20724;-56
2022/11/18 00:31:32;;;;;;;11.37;7.03;;;8.30;83.60;;;10.91;61.25;99905.28;5068442;28;20704;-53
2022/11/18 00:33:59;;;;;;;7.73;6.93;;;8.30;83.70;;;10.94;61.16;99904.09;5073429;28;20197;-56
2022/11/18 00:36:27;;;;;;;7.93;7.13;;;8.40;83.80;;;10.96;60.94;99902.09;5054937;28;20243;-55
2022/11/18 00:38:54;;;;;;;7.07;6.37;;;8.30;83.60;;;10.96;60.92;99902.09;5054844;28;20189;-55
2022/11/18 00:41:21;;;;;;;8.17;7.37;;;8.30;83.40;;;10.97;60.76;99908.97;5054712;28;20233;-56
2022/11/18 00:43:48;;;;;;;8.10;6.70;;;8.30;83.50;;;10.95;61.16;99905.72;5054578;28;20194;-55
2022/11/18 00:46:15;;;;;;;8.37;7.13;;;8.30;83.20;;;10.94;61.12;99919.88;5054674;28;20190;-54
2022/11/18 00:48:44;;;;;;;8.53;6.90;;;8.30;83.30;;;10.98;60.61;99916.69;5072005;28;20743;-53
2022/11/18 00:51:15;;;;;;;8.07;6.10;;;8.40;83.50;;;11.02;60.53;99922.34;5074394;28;20216;-55
2022/11/18 00:53:42;;;;;;;8.30;6.90;;;8.40;83.60;;;11.04;60.64;99917.69;5074716;28;20193;-55
2022/11/18 00:56:10;;;;;;;9.27;7.20;;;8.40;83.30;;;11.06;60.93;99923.56;5073676;28;20618;-54
2022/11/18 00:58:37;;;;;;;8.97;7.50;;;8.40;83.50;;;11.00;60.16;99919.94;5080920;28;20238;-54
2022/11/18 01:01:04;;;;;;;7.57;6.77;;;8.40;83.00;;;10.95;60.10;99927.59;5094555;28;20230;-55
2022/11/18 01:03:32;;;;;;;7.77;6.37;;;8.40;82.70;;;10.92;60.87;99932.44;5095120;28;20280;-53
2022/11/18 01:06:00;;;;;;;7.70;6.90;;;8.40;82.80;;;10.89;60.89;99929.19;5071052;28;20282;-54
2022/11/18 01:08:27;;;;;;;7.70;6.70;;;8.30;82.90;;;10.93;61.04;99931.44;5054417;28;20213;-54
2022/11/18 01:13:17;;;;;;;9.87;7.80;;;8.30;83.20;;;10.93;60.84;99928.81;5053120;28;20216;-53
2022/11/18 01:13:41;;;;;;;8.27;6.90;;;8.30;83.10;;;10.96;60.75;99933.69;5054092;28;20197;-53
2022/11/18 01:16:08;;;;;;;8.07;7.17;;;8.30;83.30;;;10.94;60.42;99935.66;5073182;28;20189;-55
2022/11/18 01:18:35;;;;;;;8.93;7.50;;;8.30;83.10;;;10.95;61.03;99937.31;5058261;28;20190;-55
2022/11/18 01:21:05;;;;;;;7.53;6.73;;;8.30;83.20;;;10.90;60.69;99943.16;5053710;28;20209;-53
2022/11/18 01:23:32;;;;;;;8.30;7.37;;;8.30;83.00;;;10.89;61.09;99949.44;5054163;28;20574;-52
2022/11/18 01:26:04;;;;;;;7.70;6.90;;;8.30;83.20;;;10.85;60.91;99948.22;5071112;28;20587;-53
2022/11/18 01:28:31;;;;;;;7.90;7.03;;;8.20;83.20;;;10.86;60.49;99950.63;5073843;28;20221;-54
2022/11/18 01:31:03;;;;;;;8.30;6.30;;;8.30;83.10;;;10.85;61.04;99954.28;5073772;28;20194;-55
2022/11/18 01:33:31;;;;;;;8.83;7.10;;;8.30;83.00;;;10.86;60.95;99960.38;5074616;28;20226;-54
2022/11/18 01:35:58;;;;;;;8.20;7.13;;;8.20;83.20;;;10.84;60.43;99963.19;5056952;28;20655;-53
2022/11/18 01:38:29;;;;;;;8.87;7.17;;;8.20;83.10;;;10.82;60.97;99965.19;5053748;28;20185;-55
2022/11/18 01:40:56;;;;;;;8.77;7.07;;;8.20;83.10;;;10.83;60.52;99961.56;5053152;28;20186;-54
2022/11/18 01:43:23;;;;;;;8.33;6.93;;;8.20;83.20;;;10.86;60.78;99965.63;5053837;28;20194;-53
2022/11/18 01:45:52;;;;;;;9.83;6.63;;;8.20;83.10;;;10.86;60.37;99963.00;5068775;28;20637;-53
2022/11/18 01:48:25;;;;;;;7.90;6.93;;;8.20;83.10;;;10.87;60.58;99965.44;5073866;28;20217;-56
2022/11/18 01:50:57;;;;;;;8.73;7.03;;;8.20;83.30;;;10.92;60.39;99958.75;5073437;28;20250;-53
2022/11/18 01:53:32;;;;;;;8.57;7.57;;;8.20;83.30;;;10.92;60.75;99964.84;5074362;28;20201;-55
2022/11/18 01:56:05;;;;;;;8.13;6.17;;;8.30;83.50;;;10.91;60.47;99972.94;5073449;28;20193;-56
2022/11/18 01:58:37;;;;;;;6.60;5.90;;;8.30;83.30;;;10.89;60.43;99971.31;5079587;28;20206;-53
2022/11/18 02:01:07;;;;;;;7.33;6.37;;;8.30;83.20;;;10.94;61.00;99973.34;5093351;28;20224;-54
2022/11/18 02:03:34;;;;;;;7.73;6.27;;;8.30;83.50;;;10.94;60.08;99975.97;5093726;28;20218;-57
2022/11/18 02:06:04;;;;;;;7.90;6.80;;;8.30;83.00;;;10.94;60.51;99972.53;5076290;28;20707;-53
2022/11/18 02:08:36;;;;;;;7.33;6.63;;;8.30;82.70;;;10.93;60.52;99973.56;5073880;28;20212;-54
2022/11/18 02:11:03;;;;;;;5.63;5.03;;;8.30;82.70;;;10.91;60.06;99983.47;5072220;28;20217;-55
2022/11/18 02:13:33;;;;;;;6.80;5.60;;;8.30;82.50;;;10.89;60.42;99973.13;5073747;28;20193;-54
2022/11/18 02:16:10;;;;;;;5.70;4.90;;;8.30;82.40;;;10.85;60.59;99975.34;5074334;28;20254;-56
2022/11/18 02:18:54;;;;;;;6.50;5.67;;;8.30;82.40;;;10.78;60.20;99974.50;5072499;28;20188;-53
2022/11/18 02:21:39;;;;;;;5.03;4.43;;;8.20;82.30;;;10.79;60.04;99975.31;5053215;28;20264;-55
2022/11/18 02:24:35;;;;;;;5.57;4.47;;;8.20;83.10;;;10.71;60.64;99984.19;5066466;28;20251;-57
2022/11/18 02:27:54;;;;;;;6.13;4.63;;;8.20;82.30;;;10.63;60.33;99981.69;5053277;28;20236;-58
2022/11/18 02:30:23;;;;;;;5.97;4.70;;;8.20;82.40;;;10.65;61.09;99982.31;5052711;28;20225;-55
2022/11/18 02:32:57;;;;;;;5.10;4.60;;;8.10;82.50;;;10.68;60.93;99991.63;5053121;28;20225;-56
2022/11/18 02:35:30;;;;;;;5.33;4.63;;;8.10;83.10;;;10.67;60.50;99995.28;5063434;28;20193;-54
2022/11/18 02:38:04;;;;;;;5.27;4.03;;;8.10;82.60;;;10.66;60.16;99994.47;5073037;28;20666;-53
2022/11/18 02:40:37;;;;;;;6.50;5.10;;;8.10;82.60;;;10.69;60.74;100002.00;5072636;28;20212;-55
2022/11/18 02:43:12;;;;;;;5.47;4.60;;;8.10;82.90;;;10.68;59.91;100000.34;5073474;28;20213;-55
2022/11/18 02:45:48;;;;;;;4.47;3.90;;;8.00;82.60;;;10.67;60.51;100003.97;5060343;28;20190;-56
2022/11/18 02:48:19;;;;;;;5.27;4.60;;;8.10;82.50;;;10.69;60.35;100002.00;5069249;28;20609;-55
2022/11/18 02:50:50;;;;;;;4.73;4.33;;;8.10;82.50;;;10.71;60.42;100004.41;5074148;28;20186;-56
2022/11/18 02:53:23;;;;;;;4.90;4.30;;;8.10;82.70;;;10.74;60.25;100010.09;5056904;28;20243;-56
2022/11/18 02:55:52;;;;;;;4.80;4.10;;;8.10;83.00;;;10.78;59.81;100016.63;5056710;28;20554;-55
2022/11/18 02:58:22;;;;;;;4.83;4.13;;;8.10;82.90;;;10.78;59.81;100011.34;5064785;28;20219;-56
2022/11/18 03:00:55;;;;;;;4.23;3.83;;;8.10;82.30;;;10.79;59.80;100023.50;5094713;28;20189;-56
2022/11/18 03:03:28;;;;;;;5.23;4.73;;;8.10;82.40;;;10.82;59.93;100023.09;5056577;28;20239;-55
2022/11/18 03:06:09;;;;;;;4.90;4.20;;;8.10;82.20;;;10.80;59.62;100029.56;5056523;28;20198;-54
2022/11/18 03:08:45;;;;;;;4.57;4.00;;;8.10;81.70;;;10.81;59.63;100032.03;5056406;28;20740;-53
2022/11/18 03:11:17;;;;;;;4.80;3.90;;;8.10;81.30;;;10.76;59.56;100023.91;5055270;28;20619;-53
2022/11/18 03:14:06;;;;;;;4.53;4.07;;;8.20;81.40;;;10.79;59.31;100031.38;5056579;28;20181;-57
2022/11/18 03:16:42;;;;;;;4.40;4.00;;;8.20;81.70;;;10.84;59.07;100026.34;5056387;28;20259;-55
2022/11/18 03:19:25;;;;;;;5.80;5.03;;;8.20;81.80;;;10.88;59.15;100032.88;5061878;28;20639;-53
2022/11/18 03:22:07;;;;;;;5.43;4.57;;;8.20;81.90;;;10.89;59.20;100034.50;5074104;28;20275;-54
2022/11/18 03:24:40;;;;;;;7.07;5.50;;;8.20;81.80;;;10.88;58.80;100035.50;5075884;28;20238;-56
2022/11/18 03:27:16;;;;;;;5.27;4.77;;;8.20;81.40;;;10.86;59.09;100031.44;5076532;28;20203;-56
2022/11/18 03:29:51;;;;;;;5.23;4.70;;;8.20;81.50;;;10.77;59.00;100038.66;5076071;28;20217;-57
2022/11/18 03:32:25;;;;;;;5.87;4.67;;;8.20;80.60;;;10.76;59.53;100037.06;5074667;28;20294;-54
2022/11/18 03:35:00;;;;;;;5.80;4.93;;;8.20;81.10;;;10.76;58.60;100036.22;5076523;28;20180;-55
2022/11/18 03:37:31;;;;;;;6.00;5.40;;;8.10;80.40;;;10.71;58.98;100041.25;5076048;28;20189;-56
2022/11/18 03:40:07;;;;;;;5.53;5.03;;;8.10;80.10;;;10.61;58.54;100041.59;5075986;28;20185;-54
2022/11/18 03:42:40;;;;;;;6.63;5.13;;;8.10;80.00;;;10.56;58.86;100041.34;5063267;28;20267;-54
2022/11/18 03:45:15;;;;;;;6.20;5.30;;;8.00;80.30;;;10.55;58.63;100063.44;5055971;28;20554;-56
2022/11/18 03:47:52;;;;;;;5.97;5.20;;;8.00;80.50;;;10.51;59.11;100062.16;5065045;28;20705;-53
2022/11/18 03:50:25;;;;;;;6.70;5.17;;;7.90;80.30;;;10.52;59.50;100058.53;5075498;28;20204;-55
2022/11/18 03:52:54;;;;;;;6.37;5.33;;;7.90;80.70;;;10.56;59.22;100070.31;5074953;28;20291;-54
2022/11/18 03:55:26;;;;;;;9.20;5.30;;;7.90;80.90;;;10.56;59.06;100065.03;5080849;28;20552;-56
2022/11/18 03:58:02;;;;;;;6.33;5.43;;;7.90;81.20;;;10.55;59.04;100073.94;5082285;28;20258;-57
2022/11/18 04:00:38;;;;;;;5.97;5.33;;;7.90;81.10;;;10.58;59.61;100073.56;5099453;28;20195;-56
2022/11/18 04:03:07;;;;;;;6.77;5.60;;;7.90;81.40;;;10.65;59.60;100078.88;5100235;28;20624;-56
2022/11/18 04:05:39;;;;;;;8.70;6.70;;;7.90;81.30;;;10.64;58.57;100079.88;5082247;28;20208;-56
2022/11/18 04:08:13;;;;;;;6.90;5.83;;;7.90;80.60;;;10.58;58.49;100084.06;5082837;28;20193;-55
2022/11/18 04:10:49;;;;;;;7.47;6.60;;;7.90;80.20;;;10.52;58.81;100090.13;5082486;28;20292;-54
2022/11/18 04:13:23;;;;;;;7.67;6.87;;;7.90;80.10;;;10.49;58.69;100097.56;5076095;28;20193;-57
2022/11/18 04:15:53;;;;;;;9.50;7.53;;;7.90;80.20;;;10.35;58.66;100101.91;5088514;28;20205;-56
2022/11/18 04:18:21;;;;;;;8.40;6.90;;;7.80;79.70;;;10.23;58.50;100099.94;5081821;28;20247;-55
2022/11/18 04:20:48;;;;;;;8.37;7.20;;;7.80;79.70;;;10.17;59.03;100112.84;5060815;28;20244;-56
2022/11/18 04:23:15;;;;;;;9.57;7.23;;;7.70;80.10;;;10.15;59.77;100109.59;5058226;28;20202;-55
2022/11/18 04:25:42;;;;;;;8.40;7.50;;;7.70;80.60;;;10.11;59.71;100112.75;5066777;28;20193;-57
2022/11/18 04:28:09;;;;;;;9.07;7.10;;;7.60;80.50;;;10.12;59.45;100111.78;5079861;28;20197;-54
2022/11/18 04:30:36;;;;;;;9.47;7.90;;;7.60;80.60;;;10.11;59.50;100107.50;5078391;28;20244;-55
2022/11/18 04:33:04;;;;;;;8.50;7.47;;;7.60;80.80;;;10.10;59.01;100111.13;5079459;28;20205;-54
2022/11/18 04:35:32;;;;;;;8.83;7.03;;;7.50;80.80;;;10.14;59.26;100117.69;5078986;28;20193;-55
2022/11/18 04:37:59;;;;;;;10.77;8.23;;;7.50;81.40;;;10.21;59.55;100121.19;5079835;28;20226;-55
2022/11/18 04:40:26;;;;;;;10.13;8.10;;;7.50;81.80;;;10.23;59.42;100123.63;5083871;28;20251;-58
2022/11/18 04:42:53;;;;;;;9.17;7.83;;;7.50;81.30;;;10.23;59.03;100113.91;5086567;28;20224;-56
2022/11/18 04:45:20;;;;;;;8.33;7.33;;;7.50;81.60;;;10.22;59.11;100124.63;5087604;28;20190;-57
2022/11/18 04:47:47;;;;;;;16.57;14.03;;;7.50;81.60;;;10.04;59.22;100122.38;5081125;28;20584;-56
2022/11/18 04:50:14;;;;;;;9.43;8.43;;;7.50;80.50;;;9.97;59.63;100124.13;5079817;28;20209;-56
2022/11/18 04:52:42;;;;;;;9.57;8.20;;;7.50;80.50;;;9.94;59.43;100132.38;5079263;28;20227;-58
2022/11/18 04:55:09;;;;;;;9.57;7.97;;;7.50;80.80;;;9.94;59.68;100127.13;5080397;28;20322;-57
2022/11/18 04:57:36;;;;;;;11.37;8.37;;;7.40;80.90;;;9.93;59.86;100130.75;5068752;28;20273;-55
2022/11/18 05:00:05;;;;;;;9.63;8.60;;;7.40;80.80;;;9.84;59.23;100137.94;5059455;28;20190;-55
2022/11/18 05:02:32;;;;;;;10.13;8.07;;;7.30;81.30;;;9.83;59.48;100140.75;5058162;28;20217;-57
2022/11/18 05:04:59;;;;;;;10.77;8.50;;;7.30;80.90;;;9.83;59.82;100148.63;5057071;28;20197;-56
2022/11/18 05:07:26;;;;;;;10.27;8.50;;;7.30;81.10;;;9.83;59.71;100151.25;5054053;28;20244;-56
2022/11/18 05:09:54;;;;;;;9.40;7.77;;;7.30;81.20;;;9.85;59.82;100149.25;5053966;28;20322;-56
2022/11/18 05:15:08;;;;;;;9.50;8.17;;;7.20;81.20;;;9.86;59.89;100156.16;5074551;28;20184;-55
2022/11/18 05:17:35;;;;;;;8.57;7.73;;;7.20;81.50;;;9.86;60.20;100150.91;5087151;28;20255;-53
2022/11/18 05:20:02;;;;;;;12.43;7.93;;;7.20;81.40;;;9.90;60.45;100160.03;5060682;28;20593;-55
2022/11/18 05:22:29;;;;;;;10.37;8.87;;;7.30;81.90;;;9.92;59.79;100156.22;5053899;28;20221;-57
2022/11/18 05:24:58;;;;;;;11.50;8.80;;;7.20;81.50;;;9.90;59.90;100160.03;5068559;28;20276;-55
2022/11/18 05:27:25;;;;;;;10.40;8.50;;;7.30;81.30;;;9.91;59.74;100167.72;5053853;28;20255;-54
2022/11/18 05:29:52;;;;;;;10.17;8.63;;;7.30;81.40;;;9.93;59.62;100163.13;5054606;28;20260;-55
2022/11/18 05:32:19;;;;;;;9.63;8.63;;;7.30;81.20;;;9.87;58.73;100163.03;5060277;28;20320;-56
2022/11/18 05:34:46;;;;;;;9.90;8.43;;;7.20;80.50;;;9.76;59.01;100160.88;5053756;28;20557;-54
2022/11/18 05:37:13;;;;;;;12.27;9.00;;;7.20;80.20;;;9.70;59.79;100161.63;5053805;28;20190;-55
2022/11/18 05:39:40;;;;;;;11.63;9.13;;;7.20;80.40;;;9.67;59.38;100173.31;5071528;28;20193;-54
2022/11/18 05:44:56;;;;;;;11.33;8.33;;;7.10;80.40;;;9.66;59.54;100181.34;5073251;28;20534;-54
2022/11/18 05:47:25;;;;;;;12.20;8.90;;;7.10;80.70;;;9.71;59.34;100189.50;5072631;28;20214;-54
2022/11/18 05:49:52;;;;;;;9.33;8.33;;;7.10;80.90;;;9.74;59.29;100191.78;5073756;28;20205;-55
2022/11/18 05:52:19;;;;;;;10.40;8.70;;;7.10;81.10;;;9.83;59.78;100190.69;5074005;28;20216;-53
2022/11/18 05:54:49;;;;;;;13.37;10.23;;;7.10;81.40;;;9.91;59.18;100190.59;5071526;28;20206;-56
2022/11/18 05:57:17;;;;;;;11.07;9.07;;;7.20;81.30;;;9.90;59.02;100191.59;5074557;28;20189;-55
2022/11/18 05:59:44;;;;;;;12.70;10.50;;;7.20;80.70;;;9.87;58.69;100192.75;5090233;28;20193;-57
2022/11/18 06:02:18;;;;;;;11.23;9.37;;;7.20;80.40;;;9.87;58.35;100190.13;5093228;28;20212;-55
2022/11/18 06:04:51;;;;;;;11.50;9.27;;;7.20;80.10;;;9.85;59.24;100196.56;5093986;28;20180;-55
2022/11/18 06:07:24;;;;;;;12.20;9.53;;;7.20;80.30;;;9.87;58.23;100190.13;5093626;28;20313;-56
2022/11/18 06:09:57;;;;;;;10.67;9.13;;;7.20;80.20;;;9.82;58.81;100199.56;5073948;28;20205;-54
2022/11/18 06:12:38;;;;;;;10.73;9.13;;;7.20;79.50;;;9.78;58.63;100200.94;5070450;28;20224;-56
2022/11/18 06:15:13;;;;;;;11.20;9.17;;;7.20;79.60;;;9.77;58.17;100207.19;5083422;28;20189;-55
2022/11/18 06:17:46;;;;;;;11.63;10.07;;;7.20;79.40;;;9.82;58.44;100207.44;5093434;28;20184;-57
2022/11/18 06:20:16;;;;;;;11.57;9.53;;;7.20;79.80;;;9.82;58.74;100208.25;5078380;28;20205;-54
2022/11/18 06:22:43;;;;;;;12.13;9.50;;;7.20;79.80;;;9.86;58.42;100214.81;5075061;28;20217;-55
2022/11/18 06:25:13;;;;;;;10.67;8.93;;;7.20;79.50;;;9.89;58.35;100221.50;5082175;28;20266;-55
2022/11/18 06:27:43;;;;;;;13.60;10.20;;;7.20;79.50;;;9.91;58.50;100227.41;5076492;28;20480;-55
2022/11/18 06:30:11;;;;;;;10.83;9.67;;;7.20;79.50;;;9.92;58.43;100224.56;5057229;28;20225;-57
2022/11/18 06:32:38;;;;;;;12.10;10.10;;;7.20;79.20;;;9.97;58.28;100226.66;5056934;28;20218;-54
2022/11/18 06:35:07;;;;;;;15.77;11.37;;;7.20;79.40;;;9.96;57.99;100225.03;5057911;28;20213;-54
2022/11/18 06:37:34;;;;;;;12.63;10.20;;;7.20;79.00;;;9.93;57.71;100231.47;5057274;28;20193;-54
2022/11/18 06:40:02;;;;;;;13.37;10.47;;;7.30;78.80;;;9.91;57.66;100230.81;5057707;28;20190;-55
2022/11/18 06:45:19;;;;;;;11.50;9.70;;;7.30;79.30;;;9.90;57.85;100238.91;5068164;28;20202;-56
2022/11/18 06:47:46;;;;;;;11.40;10.03;;;7.30;78.70;;;9.84;58.07;100247.53;5067086;28;20197;-54
2022/11/18 06:50:13;;;;;;;10.77;9.57;;;7.20;78.40;;;9.80;57.61;100251.50;5077791;28;20266;-55
2022/11/18 06:52:40;;;;;;;12.47;10.77;;;7.20;78.30;;;9.76;57.71;100255.47;5079431;28;20217;-56
2022/11/18 06:55:08;;;;;;;13.20;9.63;;;7.20;78.50;;;9.79;57.70;100265.63;5077215;28;20556;-55
2022/11/18 06:57:35;;;;;;;13.83;9.60;;;7.10;78.80;;;9.79;58.02;100260.38;5078867;28;20194;-54
2022/11/18 07:00:03;;;;;;;12.60;9.60;;;7.20;78.90;;;9.77;57.56;100270.25;5076765;28;20570;-56
2022/11/18 07:02:35;;;;;;;13.63;10.37;;;7.10;78.40;;;9.73;57.23;100276.84;5064091;28;20224;-57
2022/11/18 07:05:05;;;;;;;11.23;9.87;;;7.10;78.20;;;9.71;57.82;100281.47;5070343;28;20205;-56
2022/11/18 07:07:34;;;;;;;12.77;10.13;;;7.10;78.60;;;9.71;57.85;100284.94;5078986;28;20325;-56
2022/11/18 07:10:08;;;;;;;12.10;9.80;;;7.10;78.40;;;9.74;57.93;100291.63;5077450;28;20212;-55
2022/11/18 07:12:35;;;;;;;9.93;8.93;;;7.10;78.60;;;9.84;58.16;100305.34;5077030;28;20201;-55
2022/11/18 07:15:03;;;;;;;12.40;11.07;;;7.10;79.10;;;9.83;56.98;100309.78;5087327;28;20208;-57
2022/11/18 07:17:31;;;;;;;14.57;11.30;;;7.20;78.10;;;9.82;57.65;100310.75;5092212;28;20259;-55
2022/11/18 07:19:58;;;;;;;12.67;9.83;;;7.20;78.00;;;9.78;57.31;100312.13;5060578;28;20206;-57
2022/11/18 07:22:25;;;;;;;13.97;10.73;;;7.20;78.00;;;9.77;57.45;100320.19;5056740;28;20714;-52
2022/11/18 07:24:52;;;;;;;12.23;9.23;;;7.20;78.00;;;9.74;57.23;100320.53;5074472;28;20251;-55
2022/11/18 07:27:21;;;;;;;12.10;10.23;;;7.10;77.50;;;9.69;57.36;100318.47;5080704;28;20185;-56
2022/11/18 07:29:47;;;;;;;14.27;11.30;;;7.10;77.60;;;9.70;57.14;100324.53;5064853;28;20201;-57
2022/11/18 07:32:14;;;;;;;13.40;10.57;;;7.10;77.90;;;9.72;57.30;100330.44;5060613;28;20245;-56
2022/11/18 07:34:44;;;;;;;13.07;10.77;;;7.10;78.20;;;9.67;57.10;100330.13;5065749;28;20745;-53
2022/11/18 07:37:11;;;;;;;14.17;11.00;;;7.10;77.70;;;9.60;57.04;100334.47;5077510;28;20596;-55
2022/11/18 07:39:38;;;;;;;13.10;10.20;;;7.10;77.30;;;9.55;56.98;100343.69;5074176;28;20199;-55
2022/11/18 07:42:05;;;;;;;14.20;11.37;;;7.00;77.10;;;9.54;57.06;100347.31;5075026;28;20205;-57
2022/11/18 07:44:32;;;;;;;16.13;12.53;;;7.00;77.50;;;9.54;57.33;100347.31;5068019;28;20205;-56
2022/11/18 07:46:59;;;;;;;18.93;11.90;;;7.00;77.40;;;9.51;57.28;100349.47;5075897;28;20200;-56
2022/11/18 07:49:27;;;;;;;13.70;10.83;;;7.00;77.50;;;9.47;57.04;100356.91;5073043;28;20686;-56
2022/11/18 07:51:55;;;;;;;17.80;12.80;;;6.90;77.30;;;9.45;57.50;100353.66;5075082;28;20643;-60
2022/11/18 07:54:23;;;;;;;15.37;11.40;;;6.90;77.60;;;9.42;57.04;100359.25;5060006;28;20272;-58
2022/11/18 07:56:50;;;;;;;12.77;11.23;;;6.90;77.50;;;9.43;56.95;100365.31;5059847;28;20199;-58
2022/11/18 07:59:17;;;;;;;14.87;10.90;;;6.90;77.40;;;9.43;56.98;100360.88;5066055;28;20200;-58
2022/11/18 08:01:44;;;;;;;14.93;11.70;;;6.80;77.50;;;9.49;57.45;100377.72;5070973;28;20296;-57
2022/11/18 08:04:12;;;;;;;13.87;11.47;;;6.90;78.10;;;9.55;57.49;100372.59;5056679;28;20205;-56
2022/11/18 08:06:39;;;;;;;14.23;11.00;;;6.90;77.90;;;9.54;57.02;100378.84;5067016;28;20200;-59
2022/11/18 08:09:10;;;;;;;14.60;11.40;;;6.90;77.70;;;9.55;56.59;100383.09;5057295;28;20232;-55
2022/11/18 08:11:37;;;;;;;14.77;11.33;;;6.90;77.40;;;9.52;57.09;100380.84;5064272;28;20528;-58
2022/11/18 08:14:04;;;;;;;17.13;12.80;;;6.90;77.40;;;9.53;57.10;100386.91;5072373;28;20205;-59
2022/11/18 08:16:31;;;;;;;15.67;11.77;;;6.90;77.40;;;9.55;56.75;100388.34;5075642;28;20209;-56
2022/11/18 08:18:59;;;;;;;15.30;12.27;;;6.90;77.50;;;9.58;56.95;100389.00;5064435;28;20190;-59
2022/11/18 08:21:27;;;;;;;14.93;12.67;;;6.90;77.50;;;9.51;56.68;100394.94;5055877;28;20213;-58
2022/11/18 08:23:56;;;;;;;17.97;13.70;;;6.90;77.10;;;9.54;56.93;100399.03;5056783;28;20204;-59
2022/11/18 08:26:26;;;;;;;27.13;21.97;;;6.90;77.40;;;9.50;56.56;100395.97;5055757;28;20505;-56
2022/11/18 08:28:53;;;;;;;17.47;13.90;;;6.90;77.10;;;9.53;57.09;100403.47;5059369;28;20263;-54
2022/11/18 08:31:25;;;;;;;16.83;13.67;;;6.90;77.30;;;9.54;56.99;100399.88;5068744;28;20581;-57
2022/11/18 08:33:55;;;;;;;15.77;13.30;;;6.90;77.30;;;9.58;56.76;100404.78;5068758;28;20256;-54
2022/11/18 08:36:26;;;;;;;21.33;14.17;;;6.90;77.70;;;9.53;56.73;100408.72;5069105;28;20206;-55
2022/11/18 08:38:55;;;;;;;15.30;12.67;;;6.90;77.30;;;9.51;56.85;100410.72;5058175;28;20201;-55
2022/11/18 08:41:31;;;;;;;16.53;13.70;;;6.90;77.30;;;9.43;56.13;100413.41;5069292;28;20228;-56
2022/11/18 08:43:59;;;;;;;15.23;13.03;;;6.80;76.50;;;9.39;56.96;100409.50;5054147;28;20199;-57
2022/11/18 08:46:27;;;;;;;15.07;12.67;;;6.80;77.20;;;9.42;56.98;100419.66;5055901;28;20280;-56
2022/11/18 08:48:54;;;;;;;15.90;13.30;;;6.80;77.70;;;9.43;56.83;100413.41;5058695;28;20193;-61
2022/11/18 08:51:21;;;;;;;23.33;16.23;;;6.80;77.40;;;9.39;57.06;100429.66;5063649;28;21385;-58
2022/11/18 08:53:49;;;;;;;20.80;16.40;;;6.80;77.10;;;9.40;56.84;100423.44;5054491;28;20643;-58
2022/11/18 08:56:20;;;;;;;19.23;15.60;;;6.80;77.20;;;9.41;56.94;100420.63;5056845;28;20558;-57
2022/11/18 08:58:52;;;;;;;17.67;15.00;;;6.80;77.40;;;9.45;56.89;100429.00;5068591;28;20223;-59
2022/11/18 09:01:19;;;;;;;19.07;15.03;;;6.80;77.70;;;9.43;57.29;100437.06;5065455;28;20752;-60
2022/11/18 09:03:48;;;;;;;23.23;17.83;;;6.80;77.60;;;9.36;57.13;100433.50;5053683;28;20198;-60
2022/11/18 09:06:21;;;;;;;33.80;24.93;;;6.80;77.40;;;9.40;57.54;100442.66;5058531;28;20212;-58
2022/11/18 09:08:48;;;;;;;22.37;17.47;;;6.80;78.00;;;9.40;57.35;100445.28;5057043;28;20202;-59
2022/11/18 09:11:18;;;;;;;26.30;16.60;;;6.80;78.20;;;9.40;57.50;100447.91;5053982;28;20222;-57
2022/11/18 09:13:53;;;;;;;20.57;16.13;;;6.80;77.70;;;9.41;57.57;100446.91;5055164;28;20295;-54
2022/11/18 09:16:40;;;;;;;18.30;15.33;;;6.80;77.90;;;9.42;57.34;100448.53;5055543;28;20240;-52
2022/11/18 09:19:26;;;;;;;26.90;21.30;;;6.80;77.70;;;9.49;57.04;100452.09;5060185;28;20204;-53
2022/11/18 09:22:16;;;;;;;22.87;17.90;;;6.80;77.80;;;9.48;56.71;100452.28;5069796;28;20261;-54
2022/11/18 09:24:43;;;;;;;22.37;17.90;;;6.80;77.20;;;9.50;56.86;100466.06;5057774;28;20202;-55
2022/11/18 09:27:11;;;;;;;21.53;17.63;;;6.90;77.40;;;9.51;56.88;100460.63;5060678;28;20221;-54
2022/11/18 09:29:45;;;;;;;21.97;18.23;;;6.90;77.40;;;9.46;56.39;100460.31;5062775;28;20288;-54
2022/11/18 09:32:12;;;;;;;23.43;17.13;;;6.80;76.10;;;9.44;56.79;100467.56;5070941;28;20225;-55
2022/11/18 09:34:39;;;;;;;29.80;22.33;;;6.80;76.70;;;9.44;56.46;100472.00;5071382;28;20201;-53
2022/11/18 09:37:06;;;;;;;26.63;19.50;;;6.80;77.10;;;9.42;56.58;100474.81;5053517;28;20250;-52
2022/11/18 09:39:35;;;;;;;24.60;18.57;;;6.80;76.70;;;9.35;55.98;100478.28;5069978;28;20388;-60
2022/11/18 09:42:23;;;;;;;21.70;17.87;;;6.70;75.90;;;9.34;56.56;100481.94;5057413;28;20259;-54
2022/11/18 09:45:08;;;;;;;24.07;17.73;;;6.80;76.60;;;9.32;56.15;100492.59;5063653;28;20201;-55
2022/11/18 09:47:41;;;;;;;23.03;17.57;;;6.70;76.30;;;9.33;56.09;100496.88;5064028;28;20209;-54
2022/11/18 09:50:12;;;;;;;21.87;17.10;;;6.70;76.20;;;9.27;56.25;100494.91;5067870;28;20205;-54
2022/11/18 09:53:15;;;;;;;21.87;17.50;;;6.70;76.00;;;9.22;56.11;100494.59;5072538;28;20240;-53
2022/11/18 09:55:42;;;;;;;23.87;17.43;;;6.70;76.20;;;9.28;56.09;100506.25;5061347;28;20750;-54
2022/11/18 09:58:20;;;;;;;22.07;17.93;;;6.70;76.20;;;9.18;55.46;100503.81;5062649;28;20246;-53
2022/11/18 10:00:48;;;;;;;23.93;18.10;;;6.70;75.30;;;9.12;56.12;100506.31;5053236;28;20201;-52
2022/11/18 10:03:28;;;;;;;31.57;22.57;;;6.60;74.90;;;9.06;55.69;100515.69;5051286;28;20219;-56
2022/11/18 10:06:02;;;;;;;23.63;18.47;;;6.60;75.20;;;9.07;56.00;100519.97;5069654;28;20246;-58
2022/11/18 10:08:38;;;;;;;20.07;16.73;;;6.50;75.30;;;9.06;56.31;100523.56;5063687;28;20215;-54
2022/11/18 10:11:14;;;;;;;23.83;17.73;;;6.50;75.60;;;9.06;55.97;100530.59;5065004;28;20240;-56
2022/11/18 10:14:00;;;;;;;19.90;16.27;;;6.50;75.80;;;9.01;55.60;100533.75;5054967;28;20284;-52
2022/11/18 10:16:46;;;;;;;18.60;16.37;;;6.50;75.30;;;9.00;55.87;100537.38;5054656;28;20667;-52
2022/11/18 10:19:28;;;;;;;22.10;16.30;;;6.50;75.30;;;9.03;56.06;100547.53;5058221;28;20216;-54
2022/11/18 10:22:14;;;;;;;21.40;16.87;;;6.50;75.60;;;9.08;55.50;100532.06;5052942;28;20710;-59
2022/11/18 10:24:52;;;;;;;19.20;15.70;;;6.50;75.50;;;9.07;55.64;100543.59;5074255;28;20622;-60
2022/11/18 10:27:20;;;;;;;19.13;15.63;;;6.50;74.90;;;9.08;55.62;100545.22;5088599;28;20183;-57
2022/11/18 10:29:54;;;;;;;20.73;16.63;;;6.50;74.90;;;9.09;55.51;100552.09;5055281;28;20206;-57
2022/11/18 10:32:23;;;;;;;19.60;16.13;;;6.50;74.90;;;9.08;54.93;100555.69;5055916;28;20237;-60
2022/11/18 10:34:54;;;;;;;21.50;17.40;;;6.50;74.40;;;9.08;55.25;100554.91;5053745;28;20190;-59
2022/11/18 10:37:25;;;;;;;20.43;15.20;;;6.50;74.40;;;9.03;54.61;100562.47;5065439;28;20217;-59
2022/11/18 10:40:25;;;;;;;19.73;14.87;;;6.50;73.90;;;8.94;54.87;100564.28;5062414;28;20213;-52
2022/11/18 10:42:52;;;;;;;18.70;14.17;;;6.50;73.90;;;8.91;54.92;100566.44;5054293;28;20217;-55
2022/11/18 10:45:26;;;;;;;17.37;14.13;;;6.40;73.70;;;8.93;55.34;100570.53;5060617;28;20600;-53